Time;durP1;ratioP1;P1;durP2;ratioP2;P2;SDS_P1;SDS_P2;PMS_P1;PMS_P2;Temp;Humidity;BMP_temperature;BMP_pressure;BME280_temperature;BME280_humidity;BME280_pressure;Samples;Min_cycle;Max_cycle;Signal;HPM_P1;HPM_P2
2022/12/25 07:06:16;;;;;;;4.82;3.15;;;;;;;8.86;100.00;100995.47;5279864;28;20394;-69
2022/12/25 07:08:47;;;;;;;4.85;3.38;;;;;;;8.88;100.00;100982.22;5280257;28;20036;-69
2022/12/25 07:11:20;;;;;;;4.07;2.97;;;;;;;8.92;100.00;100994.38;5280481;28;20052;-69
2022/12/25 07:13:51;;;;;;;5.03;3.25;;;;;;;8.96;100.00;100998.25;5279483;28;20561;-69
2022/12/25 07:16:24;;;;;;;6.10;3.08;;;;;;;8.98;100.00;100998.81;5270751;28;20080;-69
2022/12/25 07:18:58;;;;;;;5.32;2.90;;;;;;;8.99;100.00;101000.47;5258588;28;20380;-70
2022/12/25 07:21:30;;;;;;;5.63;3.10;;;;;;;9.04;100.00;101008.75;5259517;28;20086;-69
2022/12/25 07:24:01;;;;;;;4.22;2.70;;;;;;;9.00;100.00;101010.44;5258874;28;20108;-69
2022/12/25 07:26:33;;;;;;;3.75;2.90;;;;;;;9.04;100.00;101025.38;5258592;28;20369;-69
2022/12/25 07:29:04;;;;;;;7.90;3.40;;;;;;;9.06;100.00;101034.22;5259331;28;20021;-70
2022/12/25 07:31:36;;;;;;;5.07;2.83;;;;;;;9.08;100.00;101032.03;5260271;28;20029;-69
2022/12/25 07:34:07;;;;;;;8.20;3.13;;;;;;;9.08;100.00;101032.03;5278845;28;20035;-69
2022/12/25 07:36:39;;;;;;;4.90;3.35;;;;;;;9.06;100.00;101034.22;5279874;28;20468;-69
2022/12/25 07:39:11;;;;;;;8.57;3.25;;;;;;;9.06;100.00;101022.34;5279585;28;20032;-69
2022/12/25 07:41:43;;;;;;;5.47;3.20;;;;;;;9.07;100.00;101022.03;5278707;28;20035;-69
2022/12/25 07:44:17;;;;;;;7.25;3.60;;;;;;;9.13;100.00;100990.53;5279561;28;20391;-69
2022/12/25 07:46:48;;;;;;;5.80;3.38;;;;;;;9.12;100.00;100983.31;5277771;28;20025;-69
2022/12/25 07:49:20;;;;;;;8.27;3.08;;;;;;;9.11;100.00;101002.97;5276403;28;20032;-69
2022/12/25 07:51:54;;;;;;;10.38;5.03;;;;;;;9.14;100.00;101007.94;5278756;28;20154;-69
2022/12/25 07:54:25;;;;;;;8.48;4.75;;;;;;;9.11;100.00;101012.09;5278396;28;20115;-69
2022/12/25 07:56:56;;;;;;;7.88;4.65;;;;;;;9.09;100.00;101019.84;5266139;28;20155;-69
2022/12/25 07:59:28;;;;;;;5.00;3.63;;;;;;;9.04;100.00;101030.91;5258605;28;20384;-69
2022/12/25 08:01:59;;;;;;;6.47;3.28;;;;;;;9.01;100.00;101050.81;5257828;28;20045;-69
2022/12/25 08:04:30;;;;;;;6.68;3.25;;;;;;;9.01;100.00;101053.59;5257969;28;20053;-69
2022/12/25 08:07:01;;;;;;;8.82;4.07;;;;;;;9.05;100.00;101060.25;5257782;28;20111;-70
2022/12/25 08:09:34;;;;;;;6.95;3.50;;;;;;;9.11;100.00;101058.31;5257192;28;20024;-70
2022/12/25 08:12:05;;;;;;;6.57;3.67;;;;;;;9.06;100.00;101061.91;5258516;28;20056;-70
2022/12/25 08:14:37;;;;;;;6.75;3.53;;;;;;;9.11;100.00;101070.19;5258087;28;20029;-70
2022/12/25 08:17:08;;;;;;;5.35;2.85;;;;;;;9.13;100.00;101078.25;5245990;28;20476;-69
2022/12/25 08:19:39;;;;;;;5.00;3.78;;;;;;;9.09;100.00;101091.78;5243100;28;20017;-69
2022/12/25 08:22:10;;;;;;;5.40;3.10;;;;;;;9.12;100.00;101085.69;5258926;28;20585;-69
2022/12/25 08:24:42;;;;;;;6.80;3.03;;;;;;;9.14;100.00;101069.66;5245785;28;20029;-69
2022/12/25 08:27:13;;;;;;;5.93;2.92;;;;;;;9.09;100.00;101058.56;5248763;28;20055;-69
2022/12/25 08:29:44;;;;;;;6.25;3.00;;;;;;;9.11;100.00;101050.84;5255354;28;20476;-69
2022/12/25 08:32:16;;;;;;;5.07;3.30;;;;;;;9.21;100.00;101063.03;5265052;28;20430;-71
2022/12/25 08:34:48;;;;;;;7.10;2.92;;;;;;;9.15;100.00;101067.72;5264578;28;20033;-69
2022/12/25 08:37:19;;;;;;;4.97;2.80;;;;;;;9.17;100.00;101061.91;5264296;28;20472;-69
2022/12/25 08:39:50;;;;;;;4.78;3.03;;;;;;;9.16;100.00;101071.31;5260506;28;20033;-69
2022/12/25 08:42:21;;;;;;;4.15;2.90;;;;;;;9.23;100.00;101080.16;5243684;28;20037;-70
2022/12/25 08:44:55;;;;;;;3.45;2.75;;;;;;;9.20;100.00;101087.09;5246071;28;20100;-69
2022/12/25 08:47:27;;;;;;;4.65;2.90;;;;;;;9.22;100.00;101087.66;5264706;28;20017;-68
2022/12/25 08:49:58;;;;;;;5.50;3.20;;;;;;;9.25;100.00;101078.78;5263845;28;20032;-69
2022/12/25 08:52:29;;;;;;;6.18;3.53;;;;;;;9.25;100.00;101080.72;5264541;28;20024;-68
2022/12/25 08:55:01;;;;;;;5.57;3.33;;;;;;;9.25;100.00;101069.66;5249248;28;20041;-69
2022/12/25 08:57:32;;;;;;;6.40;3.15;;;;;;;9.25;100.00;101069.66;5242972;28;20033;-69
2022/12/25 09:00:04;;;;;;;5.43;3.22;;;;;;;9.23;100.00;101060.78;5246064;28;20411;-69
2022/12/25 09:02:35;;;;;;;4.45;2.75;;;;;;;9.18;100.00;101053.34;5257852;28;20384;-69
2022/12/25 09:05:07;;;;;;;6.68;3.00;;;;;;;9.19;100.00;101045.88;5241837;28;20052;-67
2022/12/25 09:07:39;;;;;;;5.90;3.72;;;;;;;9.20;100.00;101041.97;5263320;28;20029;-67
2022/12/25 09:10:10;;;;;;;5.00;3.15;;;;;;;9.18;100.00;101049.72;5263629;28;20106;-67
2022/12/25 09:12:41;;;;;;;6.38;3.40;;;;;;;9.19;100.00;101034.78;5263145;28;20480;-67
2022/12/25 09:15:13;;;;;;;6.22;3.53;;;;;;;9.16;100.00;101046.44;5247751;28;20028;-67
2022/12/25 09:17:44;;;;;;;7.45;3.30;;;;;;;9.18;100.00;101063.56;5247124;28;20047;-67
2022/12/25 09:20:15;;;;;;;6.32;3.22;;;;;;;9.19;100.00;101055.00;5251640;28;20025;-68
2022/12/25 09:22:47;;;;;;;7.70;3.75;;;;;;;9.21;100.00;101072.16;5242211;28;20473;-69
2022/12/25 09:25:18;;;;;;;5.32;3.45;;;;;;;9.20;100.00;101073.25;5242056;28;20074;-69
2022/12/25 09:27:49;;;;;;;7.38;4.35;;;;;;;9.18;100.00;101056.13;5241668;28;20021;-69
2022/12/25 09:30:20;;;;;;;4.90;3.88;;;;;;;9.19;100.00;101054.16;5242574;28;20028;-68
2022/12/25 09:32:52;;;;;;;5.07;3.13;;;;;;;9.22;100.00;101045.31;5262334;28;20017;-68
2022/12/25 09:35:23;;;;;;;5.90;3.85;;;;;;;9.24;100.00;101049.47;5263543;28;20494;-69
2022/12/25 09:37:54;;;;;;;5.95;3.85;;;;;;;9.22;100.00;101028.72;5247276;28;20041;-69
2022/12/25 09:40:29;;;;;;;5.82;3.35;;;;;;;9.28;100.00;101013.75;5241854;28;20057;-69
2022/12/25 09:43:02;;;;;;;5.32;3.22;;;;;;;9.24;100.00;101026.50;5242925;28;20084;-69
2022/12/25 09:45:37;;;;;;;6.38;4.45;;;;;;;9.14;100.00;101036.44;5257692;28;20032;-69
2022/12/25 09:48:12;;;;;;;5.10;3.40;;;;;;;9.19;100.00;101035.63;5241641;28;20036;-68
2022/12/25 09:50:52;;;;;;;8.30;3.60;;;;;;;9.15;100.00;101042.81;5242344;28;20028;-68
2022/12/25 09:53:27;;;;;;;6.72;3.92;;;;;;;9.12;100.00;101033.13;5260490;28;20029;-69
2022/12/25 09:56:03;;;;;;;6.57;3.80;;;;;;;9.10;100.00;101023.44;5262773;28;20068;-69
2022/12/25 09:58:34;;;;;;;5.55;3.83;;;;;;;9.11;100.00;101014.03;5263211;28;20033;-68
2022/12/25 10:01:11;;;;;;;8.43;4.35;;;;;;;9.19;100.00;101020.97;5261985;28;20021;-69
2022/12/25 10:04:13;;;;;;;4.57;3.83;;;;;;;9.22;100.00;101012.94;5261837;28;20025;-70
2022/12/25 10:07:02;;;;;;;6.75;4.28;;;;;;;9.18;100.00;101008.22;5243434;28;20043;-69
2022/12/25 10:09:52;;;;;;;9.00;4.97;;;;;;;9.23;100.00;100999.91;5241276;28;20376;-70
2022/12/25 10:12:45;;;;;;;5.82;5.00;;;;;;;9.23;100.00;100999.91;5241602;28;20033;-68
2022/12/25 10:15:30;;;;;;;5.72;4.90;;;;;;;9.22;100.00;100999.09;5262031;28;20094;-68
2022/12/25 10:18:16;;;;;;;8.55;5.10;;;;;;;9.27;100.00;100995.50;5262618;28;20021;-68
2022/12/25 10:20:51;;;;;;;6.85;6.18;;;;;;;9.30;100.00;100998.53;5261694;28;20443;-67
2022/12/25 10:23:28;;;;;;;6.50;5.18;;;;;;;9.30;100.00;100995.75;5245008;28;20025;-68
2022/12/25 10:25:59;;;;;;;4.88;4.40;;;;;;;9.30;100.00;100989.41;5241805;28;20422;-68
2022/12/25 10:28:42;;;;;;;6.85;4.85;;;;;;;9.34;100.00;100996.06;5240691;28;20112;-68
2022/12/25 10:31:21;;;;;;;7.93;5.10;;;;;;;9.25;100.00;100978.34;5241325;28;20029;-68
2022/12/25 10:33:53;;;;;;;7.70;4.85;;;;;;;9.24;100.00;100991.34;5241691;28;20036;-68
2022/12/25 10:36:26;;;;;;;6.32;4.30;;;;;;;9.25;100.00;100984.69;5250110;28;20416;-68
2022/12/25 10:38:58;;;;;;;8.27;5.13;;;;;;;9.28;100.00;100988.84;5261454;28;20025;-68
2022/12/25 10:42:17;;;;;;;7.43;4.57;;;;;;;9.37;100.00;100987.19;5260841;28;20032;-68
2022/12/25 10:44:57;;;;;;;5.72;5.10;;;;;;;9.33;100.00;100986.06;5256437;28;20067;-68
2022/12/25 10:47:36;;;;;;;4.85;4.07;;;;;;;9.28;100.00;100975.00;5262141;28;20351;-68
2022/12/25 10:50:18;;;;;;;5.63;4.50;;;;;;;9.32;100.00;100970.59;5253144;28;20059;-68
2022/12/25 10:52:58;;;;;;;7.97;5.43;;;;;;;9.32;100.00;100962.28;5249753;28;20025;-67
2022/12/25 10:55:30;;;;;;;6.30;5.57;;;;;;;9.33;100.00;100944.56;5245804;28;20017;-67
2022/12/25 10:58:04;;;;;;;6.60;5.60;;;;;;;9.27;100.00;100937.38;5256633;28;20087;-67
2022/12/25 11:00:36;;;;;;;7.88;5.82;;;;;;;9.28;100.00;100933.50;5261925;28;20028;-67
2022/12/25 11:03:21;;;;;;;8.15;5.57;;;;;;;9.28;100.00;100930.72;5248944;28;20035;-67
2022/12/25 11:05:53;;;;;;;8.95;5.55;;;;;;;9.23;100.00;100937.13;5239481;28;20124;-67
2022/12/25 11:08:27;;;;;;;6.88;4.97;;;;;;;9.19;100.00;100943.47;5252498;28;20388;-67
2022/12/25 11:11:10;;;;;;;6.63;5.35;;;;;;;9.28;100.00;100950.09;5260383;28;20059;-67
2022/12/25 11:13:49;;;;;;;5.90;5.30;;;;;;;9.32;100.00;100943.72;5250954;28;20035;-68
2022/12/25 11:16:47;;;;;;;5.97;4.60;;;;;;;9.38;100.00;100927.94;5241127;28;20504;-68
2022/12/25 11:19:30;;;;;;;7.28;4.70;;;;;;;9.38;100.00;100925.16;5254878;28;20048;-68
2022/12/25 11:22:03;;;;;;;8.82;5.65;;;;;;;9.37;100.00;100915.22;5261684;28;20120;-68
2022/12/25 11:24:35;;;;;;;11.10;5.60;;;;;;;9.39;100.00;100913.00;5261793;28;20025;-68
2022/12/25 11:27:41;;;;;;;6.32;5.57;;;;;;;9.47;100.00;100901.34;5239169;28;20044;-68
2022/12/25 11:30:14;;;;;;;7.03;5.50;;;;;;;9.41;100.00;100885.88;5235339;28;20108;-68
2022/12/25 11:32:54;;;;;;;11.65;7.43;;;;;;;9.41;100.00;100890.56;5245987;28;20032;-67
2022/12/25 11:35:31;;;;;;;8.93;6.85;;;;;;;9.42;100.00;100889.47;5240641;28;20026;-67
2022/12/25 11:38:02;;;;;;;6.75;6.00;;;;;;;9.42;100.00;100882.00;5249679;28;20033;-68
2022/12/25 11:40:37;;;;;;;10.52;6.03;;;;;;;9.36;100.00;100881.19;5244001;28;20021;-68
2022/12/25 11:43:14;;;;;;;6.93;6.15;;;;;;;9.36;100.00;100877.59;5264219;28;20082;-68
2022/12/25 11:46:13;;;;;;;9.77;7.60;;;;;;;9.45;100.00;100867.59;5256808;28;20037;-68
2022/12/25 11:49:14;;;;;;;10.00;7.45;;;;;;;9.47;100.00;100873.69;5251018;28;20033;-68
2022/12/25 11:51:50;;;;;;;9.35;8.05;;;;;;;9.35;100.00;100865.66;5240415;28;20041;-68
2022/12/25 11:54:27;;;;;;;13.07;8.82;;;;;;;9.44;100.00;100874.25;5259529;28;20039;-68
2022/12/25 11:57:03;;;;;;;15.88;11.88;;;;;;;9.39;100.00;100860.41;5263853;28;20037;-68
2022/12/25 11:59:44;;;;;;;9.82;8.18;;;;;;;9.41;100.00;100855.44;5264416;28;20040;-67
2022/12/25 12:02:31;;;;;;;8.18;7.28;;;;;;;9.40;100.00;100851.00;5264147;28;20021;-67
2022/12/25 12:05:27;;;;;;;10.77;7.90;;;;;;;9.42;100.00;100854.31;5250775;28;20049;-67
2022/12/25 12:08:02;;;;;;;9.32;6.75;;;;;;;9.39;100.00;100860.41;5243363;28;20412;-67
2022/12/25 12:10:41;;;;;;;6.55;5.93;;;;;;;9.40;100.00;100856.53;5247287;28;20421;-67
2022/12/25 12:13:25;;;;;;;6.80;5.68;;;;;;;9.40;100.00;100861.25;5264966;28;20064;-67
2022/12/25 12:16:00;;;;;;;9.52;7.07;;;;;;;9.39;100.00;100856.81;5264638;28;20100;-67
2022/12/25 12:18:32;;;;;;;6.97;6.30;;;;;;;9.33;100.00;100850.44;5262853;28;20045;-68
2022/12/25 12:21:21;;;;;;;7.32;6.38;;;;;;;9.36;100.00;100849.91;5258699;28;20029;-68
2022/12/25 12:24:12;;;;;;;9.85;7.60;;;;;;;9.36;100.00;100847.16;5244064;28;20056;-68
2022/12/25 12:26:47;;;;;;;11.13;8.13;;;;;;;9.30;100.00;100840.78;5248342;28;20025;-68
2022/12/25 12:29:21;;;;;;;10.90;9.15;;;;;;;9.34;100.00;100841.88;5254835;28;20025;-68
2022/12/25 12:31:58;;;;;;;9.15;8.20;;;;;;;9.32;100.00;100837.75;5255599;28;20036;-68
2022/12/25 12:34:46;;;;;;;10.50;9.40;;;;;;;9.38;100.00;100828.28;5261788;28;20039;-68
2022/12/25 12:37:22;;;;;;;9.95;8.65;;;;;;;9.35;100.00;100820.56;5259712;28;20025;-68
2022/12/25 12:39:54;;;;;;;11.15;9.43;;;;;;;9.36;100.00;100808.41;5244050;28;20176;-68
2022/12/25 12:42:32;;;;;;;8.50;7.70;;;;;;;9.42;100.00;100814.75;5242811;28;20133;-68
2022/12/25 12:45:09;;;;;;;9.35;8.43;;;;;;;9.43;100.00;100816.38;5243898;28;20488;-68
2022/12/25 12:47:45;;;;;;;11.30;10.15;;;;;;;9.43;100.00;100824.69;5243721;28;20025;-68
2022/12/25 12:50:34;;;;;;;;;;;;;;;9.56;100.00;100813.84;5257514;28;20383;-68
2022/12/25 12:53:15;;;;;;;13.32;11.35;;;;;;;9.52;100.00;100812.75;5264242;28;19913;-69
2022/12/25 12:55:47;;;;;;;10.25;8.93;;;;;;;9.58;100.00;100813.53;5252947;28;20030;-70
2022/12/25 12:58:34;;;;;;;9.75;8.85;;;;;;;9.56;100.00;100816.63;5242744;28;20026;-69
2022/12/25 13:01:41;;;;;;;10.13;9.20;;;;;;;9.58;100.00;100811.59;5243368;28;20014;-69
2022/12/25 13:04:18;;;;;;;12.85;10.13;;;;;;;9.49;100.00;100809.72;5242511;28;20030;-70
2022/12/25 13:07:01;;;;;;;10.43;9.52;;;;;;;9.53;100.00;100800.56;5250910;28;20104;-69
2022/12/25 13:09:51;;;;;;;10.07;9.15;;;;;;;9.55;100.00;100798.34;5266503;28;20195;-69
2022/12/25 13:12:22;;;;;;;10.35;9.25;;;;;;;9.51;100.00;100783.41;5258441;28;20507;-69
2022/12/25 13:14:54;;;;;;;10.65;9.55;;;;;;;9.46;100.00;100777.91;5263776;28;20025;-70
2022/12/25 13:17:26;;;;;;;11.63;10.43;;;;;;;9.53;100.00;100766.50;5263075;28;20039;-70
2022/12/25 13:19:59;;;;;;;14.10;12.70;;;;;;;9.55;100.00;100765.09;5263763;28;20021;-71
2022/12/25 13:22:33;;;;;;;13.18;11.98;;;;;;;9.56;100.00;100755.72;5263922;28;20036;-69
2022/12/25 13:25:16;;;;;;;11.95;10.70;;;;;;;9.51;100.00;100752.97;5262871;28;20108;-70
2022/12/25 13:27:55;;;;;;;12.32;10.25;;;;;;;9.61;100.00;100762.31;5243067;28;20033;-70
2022/12/25 13:30:27;;;;;;;10.52;9.52;;;;;;;9.56;100.00;100744.63;5243275;28;20362;-70
2022/12/25 13:32:58;;;;;;;12.88;11.57;;;;;;;9.56;100.00;100752.94;5255626;28;20040;-70
2022/12/25 13:35:30;;;;;;;11.57;10.57;;;;;;;9.63;100.00;100754.56;5284645;28;20016;-69
2022/12/25 13:38:01;;;;;;;11.27;9.93;;;;;;;9.62;100.00;100742.66;5284418;28;20039;-69
2022/12/25 13:40:33;;;;;;;10.52;9.63;;;;;;;9.64;100.00;100740.44;5273451;28;20017;-69
2022/12/25 13:43:04;;;;;;;10.15;9.15;;;;;;;9.58;100.00;100742.38;5263601;28;20043;-69
2022/12/25 13:45:35;;;;;;;11.50;10.45;;;;;;;9.60;100.00;100733.81;5248514;28;20055;-70
2022/12/25 13:48:14;;;;;;;10.98;9.77;;;;;;;9.64;100.00;100739.59;5263230;28;20025;-69
2022/12/25 13:50:56;;;;;;;10.68;9.57;;;;;;;9.62;100.00;100733.53;5263411;28;20025;-69
2022/12/25 13:53:27;;;;;;;11.32;10.27;;;;;;;9.63;100.00;100732.41;5262471;28;21153;-70
2022/12/25 13:55:58;;;;;;;9.75;8.50;;;;;;;9.57;100.00;100724.13;5263306;28;20117;-70
2022/12/25 13:58:33;;;;;;;10.73;9.63;;;;;;;9.60;100.00;100725.50;5257298;28;20481;-70
2022/12/25 14:01:05;;;;;;;14.20;11.97;;;;;;;9.60;100.00;100730.22;5262075;28;20021;-68
2022/12/25 14:03:41;;;;;;;9.75;8.82;;;;;;;9.63;100.00;100737.94;5262035;28;20287;-69
2022/12/25 14:06:15;;;;;;;9.48;8.70;;;;;;;9.56;100.00;100724.41;5262784;28;20111;-70
2022/12/25 14:08:47;;;;;;;9.15;8.02;;;;;;;9.55;100.00;100720.81;5262096;28;20412;-70
2022/12/25 14:11:23;;;;;;;9.23;8.43;;;;;;;9.62;100.00;100714.97;5263029;28;20086;-70
2022/12/25 14:14:01;;;;;;;10.40;9.40;;;;;;;9.65;100.00;100724.66;5261114;28;20033;-70
2022/12/25 14:16:33;;;;;;;10.18;9.18;;;;;;;9.63;100.00;100721.31;5263095;28;20483;-70
2022/12/25 14:19:22;;;;;;;8.98;8.20;;;;;;;9.62;100.00;100714.97;5248159;28;20083;-70
2022/12/25 14:22:16;;;;;;;10.85;9.90;;;;;;;9.65;100.00;100713.56;5261259;28;20112;-70
2022/12/25 14:24:48;;;;;;;13.80;12.50;;;;;;;9.65;100.00;100721.88;5262408;28;20120;-70
2022/12/25 14:27:26;;;;;;;11.60;10.52;;;;;;;9.60;100.00;100705.28;5262752;28;20032;-70
2022/12/25 14:29:59;;;;;;;10.77;9.77;;;;;;;9.58;100.00;100703.63;5261760;28;20025;-70
2022/12/25 14:32:38;;;;;;;10.95;9.90;;;;;;;9.58;100.00;100698.09;5262815;28;20028;-69
2022/12/25 14:35:11;;;;;;;9.82;8.93;;;;;;;9.62;100.00;100692.81;5246481;28;20129;-70
2022/12/25 14:37:42;;;;;;;11.10;10.10;;;;;;;9.59;100.00;100693.41;5252345;28;20404;-70
2022/12/25 14:40:24;;;;;;;10.63;9.57;;;;;;;9.58;100.00;100700.03;5262342;28;20024;-70
2022/12/25 14:42:57;;;;;;;10.13;9.23;;;;;;;9.50;100.00;100707.00;5261495;28;20029;-70
2022/12/25 14:45:34;;;;;;;10.15;8.93;;;;;;;9.55;100.00;100712.50;5261865;28;20117;-70
2022/12/25 14:48:20;;;;;;;9.63;8.73;;;;;;;9.50;100.00;100717.25;5262313;28;20052;-70
2022/12/25 14:51:05;;;;;;;10.15;9.23;;;;;;;9.50;100.00;100718.06;5261676;28;20106;-70
2022/12/25 14:53:45;;;;;;;9.45;8.55;;;;;;;9.60;100.00;100721.91;5247600;28;20018;-70
2022/12/25 14:56:18;;;;;;;11.23;10.13;;;;;;;9.49;100.00;100726.69;5261315;28;20033;-70
2022/12/25 14:58:56;;;;;;;11.60;10.52;;;;;;;9.57;100.00;100715.81;5262220;28;20029;-71
2022/12/25 15:01:35;;;;;;;10.07;9.18;;;;;;;9.55;100.00;100711.69;5262091;28;20041;-70
2022/12/25 15:04:06;;;;;;;9.38;8.48;;;;;;;9.50;100.00;100720.84;5260863;28;20037;-71
2022/12/25 15:06:52;;;;;;;9.88;8.90;;;;;;;9.45;100.00;100709.78;5242317;28;20029;-70
2022/12/25 15:09:25;;;;;;;17.65;15.80;;;;;;;9.52;100.00;100704.78;5241336;28;20084;-71
2022/12/25 15:11:56;;;;;;;25.25;22.75;;;;;;;9.50;100.00;100709.78;5240523;28;20079;-71
2022/12/25 15:14:30;;;;;;;21.55;19.55;;;;;;;9.46;100.00;100718.91;5240953;28;20385;-71
2022/12/25 15:17:01;;;;;;;15.30;13.80;;;;;;;9.44;100.00;100722.00;5240639;28;20508;-71
2022/12/25 15:19:36;;;;;;;13.05;11.85;;;;;;;9.50;100.00;100717.25;5240562;28;20108;-72
2022/12/25 15:22:11;;;;;;;18.85;16.67;;;;;;;9.51;100.00;100719.75;5241055;28;20061;-71
2022/12/25 15:24:42;;;;;;;13.93;12.63;;;;;;;9.50;100.00;100709.78;5240197;28;20113;-71
2022/12/25 15:27:17;;;;;;;12.32;11.13;;;;;;;9.46;100.00;100707.84;5243641;28;20366;-71
2022/12/25 15:29:49;;;;;;;11.50;10.50;;;;;;;9.51;100.00;100702.28;5264877;28;20032;-71
2022/12/25 15:32:22;;;;;;;12.07;10.98;;;;;;;9.40;100.00;100697.94;5265539;28;20083;-71
2022/12/25 15:34:53;;;;;;;11.63;10.52;;;;;;;9.43;100.00;100703.72;5265922;28;20025;-71
2022/12/25 15:37:25;;;;;;;11.45;10.30;;;;;;;9.42;100.00;100704.84;5265665;28;20502;-72
2022/12/25 15:39:56;;;;;;;12.70;11.48;;;;;;;9.41;100.00;100705.09;5264975;28;20021;-71
2022/12/25 15:42:28;;;;;;;12.02;10.93;;;;;;;9.47;100.00;100696.50;5265936;28;20071;-70
2022/12/25 15:44:59;;;;;;;12.52;11.40;;;;;;;9.49;100.00;100688.75;5262044;28;20057;-71
2022/12/25 15:47:31;;;;;;;13.38;12.13;;;;;;;9.47;100.00;100702.03;5265679;28;20071;-70
2022/12/25 15:50:03;;;;;;;12.55;11.45;;;;;;;9.49;100.00;100708.13;5265457;28;20086;-71
2022/12/25 15:52:34;;;;;;;17.60;15.88;;;;;;;9.41;100.00;100714.28;5265551;28;20036;-71
2022/12/25 15:55:06;;;;;;;18.23;16.42;;;;;;;9.50;100.00;100686.81;5249177;28;20018;-71
2022/12/25 15:57:40;;;;;;;16.33;14.77;;;;;;;9.45;100.00;100687.66;5244382;28;20029;-71
2022/12/25 16:00:18;;;;;;;15.88;14.48;;;;;;;9.51;100.00;100691.22;5243432;28;20120;-71
2022/12/25 16:02:50;;;;;;;14.88;13.57;;;;;;;9.43;100.00;100700.13;5256844;28;20044;-70
2022/12/25 16:05:21;;;;;;;15.73;14.27;;;;;;;9.46;100.00;100702.31;5265020;28;20088;-71
2022/12/25 16:07:53;;;;;;;22.80;20.42;;;;;;;9.51;100.00;100686.53;5264724;28;20061;-71
2022/12/25 16:10:24;;;;;;;20.00;17.92;;;;;;;9.40;100.00;100689.63;5265157;28;20070;-71
2022/12/25 16:12:55;;;;;;;17.15;15.55;;;;;;;9.52;100.00;100690.94;5265024;28;20029;-70
2022/12/25 16:15:27;;;;;;;17.40;15.60;;;;;;;9.45;100.00;100697.91;5264507;28;20075;-70
2022/12/25 16:17:58;;;;;;;18.10;16.38;;;;;;;9.45;100.00;100679.34;5265069;28;20057;-70
2022/12/25 16:20:30;;;;;;;29.08;26.48;;;;;;;9.46;100.00;100682.94;5246804;28;20021;-71
2022/12/25 16:23:01;;;;;;;24.20;21.75;;;;;;;9.32;100.00;100689.09;5244372;28;20246;-70
2022/12/25 16:25:32;;;;;;;23.58;21.30;;;;;;;9.34;100.00;100686.88;5243936;28;20138;-70
2022/12/25 16:28:08;;;;;;;21.20;19.20;;;;;;;9.35;100.00;100682.19;5243357;28;20036;-70
2022/12/25 16:30:40;;;;;;;;;;;;;;;9.49;100.00;100677.66;5244493;28;20112;-70
2022/12/25 16:33:11;;;;;;;18.00;16.30;;;;;;;9.51;100.00;100686.53;5244214;28;20050;-71
2022/12/25 16:35:43;;;;;;;14.95;13.45;;;;;;;9.41;100.00;100683.81;5243621;28;20036;-70
